Livingston, New Jersey
Current Conditions -  °F | °C
As of 8:45 PM on Friday 24 Oct 2014 (Local Time) from KMMU Reporting Station
Clear Clear  
Wind Chill: 61°   Ceiling: Unl
Heat Index: 61°   Visibility: 10mi
Dew Point: 41°   Wind: 8mph
Humidity: 48%   Direction: 350°N
Pressure: 29.83"   Gusts: 16mph
Location:  40.78°N, 74.32°W
Report Text: KMMU 250045Z 35007G14KT 10SM SKC 16/05 A2983
Loading
Personal Weather Stations






























Interactive Weather Map
Tropical Storm Tracking
New forecast layout! Learn more

10-Day Weather Forecast

Advertisements
Track Severe Weather on mobile